sensor_id;sensor_type;location;lat;lon;timestamp;temperature;humidity
55560;DHT22;41414;53.250;6.514;2022-11-28T00:02:13;5.90;99.90
55560;DHT22;41414;53.250;6.514;2022-11-28T00:04:39;5.90;99.90
55560;DHT22;41414;53.250;6.514;2022-11-28T00:07:05;5.90;99.90
55560;DHT22;41414;53.250;6.514;2022-11-28T00:09:31;5.90;99.90
55560;DHT22;41414;53.250;6.514;2022-11-28T00:11:57;5.90;99.90
55560;DHT22;41414;53.250;6.514;2022-11-28T00:14:22;5.90;99.90
55560;DHT22;41414;53.250;6.514;2022-11-28T00:16:48;5.90;99.90
55560;DHT22;41414;53.250;6.514;2022-11-28T00:19:14;5.90;99.90
55560;DHT22;41414;53.250;6.514;2022-11-28T00:21:40;5.90;99.90
55560;DHT22;41414;53.250;6.514;2022-11-28T00:24:07;5.90;99.90
55560;DHT22;41414;53.250;6.514;2022-11-28T00:26:35;5.90;99.90
55560;DHT22;41414;53.250;6.514;2022-11-28T00:29:02;5.90;99.90
55560;DHT22;41414;53.250;6.514;2022-11-28T00:31:31;5.90;99.90
55560;DHT22;41414;53.250;6.514;2022-11-28T00:33:57;5.90;99.90
55560;DHT22;41414;53.250;6.514;2022-11-28T00:36:24;5.90;99.90
55560;DHT22;41414;53.250;6.514;2022-11-28T00:38:50;5.90;99.90
55560;DHT22;41414;53.250;6.514;2022-11-28T00:41:19;5.90;99.90
55560;DHT22;41414;53.250;6.514;2022-11-28T00:43:46;5.90;99.90
55560;DHT22;41414;53.250;6.514;2022-11-28T00:46:14;5.90;99.90
55560;DHT22;41414;53.250;6.514;2022-11-28T00:48:41;5.90;99.90
55560;DHT22;41414;53.250;6.514;2022-11-28T00:51:10;5.90;99.90
55560;DHT22;41414;53.250;6.514;2022-11-28T00:53:37;5.90;99.90
55560;DHT22;41414;53.250;6.514;2022-11-28T00:56:06;5.90;99.90
55560;DHT22;41414;53.250;6.514;2022-11-28T00:58:33;5.90;99.90
55560;DHT22;41414;53.250;6.514;2022-11-28T01:01:00;5.90;99.90
55560;DHT22;41414;53.250;6.514;2022-11-28T01:03:31;5.90;99.90
55560;DHT22;41414;53.250;6.514;2022-11-28T01:05:57;5.90;99.90
55560;DHT22;41414;53.250;6.514;2022-11-28T01:08:22;5.90;99.90
55560;DHT22;41414;53.250;6.514;2022-11-28T01:10:48;5.90;99.90
55560;DHT22;41414;53.250;6.514;2022-11-28T01:13:14;5.90;99.90
55560;DHT22;41414;53.250;6.514;2022-11-28T01:15:41;5.90;99.90
55560;DHT22;41414;53.250;6.514;2022-11-28T01:18:07;5.90;99.90
55560;DHT22;41414;53.250;6.514;2022-11-28T01:20:33;6.00;99.90
55560;DHT22;41414;53.250;6.514;2022-11-28T01:22:59;6.00;99.90
55560;DHT22;41414;53.250;6.514;2022-11-28T01:25:25;5.90;99.90
55560;DHT22;41414;53.250;6.514;2022-11-28T01:27:51;6.00;99.90
55560;DHT22;41414;53.250;6.514;2022-11-28T01:30:17;6.00;99.90
55560;DHT22;41414;53.250;6.514;2022-11-28T01:32:43;6.00;99.90
55560;DHT22;41414;53.250;6.514;2022-11-28T01:35:09;6.00;99.90
55560;DHT22;41414;53.250;6.514;2022-11-28T01:37:35;6.00;99.90
55560;DHT22;41414;53.250;6.514;2022-11-28T01:40:01;6.00;99.90
55560;DHT22;41414;53.250;6.514;2022-11-28T01:42:27;6.00;99.90
55560;DHT22;41414;53.250;6.514;2022-11-28T01:47:22;6.10;99.90
55560;DHT22;41414;53.250;6.514;2022-11-28T01:49:50;6.10;99.90
55560;DHT22;41414;53.250;6.514;2022-11-28T01:52:18;6.10;99.90
55560;DHT22;41414;53.250;6.514;2022-11-28T01:54:48;6.10;99.90
55560;DHT22;41414;53.250;6.514;2022-11-28T01:57:19;6.10;99.90
55560;DHT22;41414;53.250;6.514;2022-11-28T02:02:36;6.20;99.90
55560;DHT22;41414;53.250;6.514;2022-11-28T02:05:03;6.10;99.90
55560;DHT22;41414;53.250;6.514;2022-11-28T02:07:29;6.10;99.90
55560;DHT22;41414;53.250;6.514;2022-11-28T02:09:55;6.20;99.90
55560;DHT22;41414;53.250;6.514;2022-11-28T02:15:23;6.20;99.90
55560;DHT22;41414;53.250;6.514;2022-11-28T02:18:06;6.10;99.90
55560;DHT22;41414;53.250;6.514;2022-11-28T02:20:51;6.10;99.90
55560;DHT22;41414;53.250;6.514;2022-11-28T02:26:29;6.10;99.90
55560;DHT22;41414;53.250;6.514;2022-11-28T02:29:24;6.10;99.90
55560;DHT22;41414;53.250;6.514;2022-11-28T02:32:09;6.10;99.90
55560;DHT22;41414;53.250;6.514;2022-11-28T02:34:42;6.10;99.90
55560;DHT22;41414;53.250;6.514;2022-11-28T02:37:20;6.10;99.90
55560;DHT22;41414;53.250;6.514;2022-11-28T02:40:05;6.10;99.90
55560;DHT22;41414;53.250;6.514;2022-11-28T02:42:46;6.10;99.90
55560;DHT22;41414;53.250;6.514;2022-11-28T02:47:48;6.10;99.90
55560;DHT22;41414;53.250;6.514;2022-11-28T02:50:25;6.10;99.90
55560;DHT22;41414;53.250;6.514;2022-11-28T02:52:56;6.10;99.90
55560;DHT22;41414;53.250;6.514;2022-11-28T02:55:24;6.10;99.90
55560;DHT22;41414;53.250;6.514;2022-11-28T02:57:52;6.10;99.90
55560;DHT22;41414;53.250;6.514;2022-11-28T03:00:25;6.10;99.90
55560;DHT22;41414;53.250;6.514;2022-11-28T03:03:30;6.10;99.90
55560;DHT22;41414;53.250;6.514;2022-11-28T03:09:21;6.10;99.90
55560;DHT22;41414;53.250;6.514;2022-11-28T03:14:52;6.20;99.90
55560;DHT22;41414;53.250;6.514;2022-11-28T03:17:37;6.20;99.90
55560;DHT22;41414;53.250;6.514;2022-11-28T03:20:14;6.20;99.90
55560;DHT22;41414;53.250;6.514;2022-11-28T03:23:09;6.20;99.90
55560;DHT22;41414;53.250;6.514;2022-11-28T03:28:12;6.20;99.90
55560;DHT22;41414;53.250;6.514;2022-11-28T03:30:45;6.20;99.90
55560;DHT22;41414;53.250;6.514;2022-11-28T03:33:14;6.20;99.90
55560;DHT22;41414;53.250;6.514;2022-11-28T03:35:47;6.20;99.90
55560;DHT22;41414;53.250;6.514;2022-11-28T03:38:24;6.20;99.90
55560;DHT22;41414;53.250;6.514;2022-11-28T03:40:55;6.20;99.90
55560;DHT22;41414;53.250;6.514;2022-11-28T03:43:24;6.20;99.90
55560;DHT22;41414;53.250;6.514;2022-11-28T03:45:55;6.20;99.90
55560;DHT22;41414;53.250;6.514;2022-11-28T03:48:26;6.20;99.90
55560;DHT22;41414;53.250;6.514;2022-11-28T03:50:59;6.20;99.90
55560;DHT22;41414;53.250;6.514;2022-11-28T03:53:30;6.20;99.90
55560;DHT22;41414;53.250;6.514;2022-11-28T03:56:10;6.20;99.90
55560;DHT22;41414;53.250;6.514;2022-11-28T03:58:44;6.20;99.90
55560;DHT22;41414;53.250;6.514;2022-11-28T04:03:54;6.30;99.90
55560;DHT22;41414;53.250;6.514;2022-11-28T04:06:39;6.30;99.90
55560;DHT22;41414;53.250;6.514;2022-11-28T04:09:12;6.30;99.90
55560;DHT22;41414;53.250;6.514;2022-11-28T04:11:48;6.30;99.90
55560;DHT22;41414;53.250;6.514;2022-11-28T04:14:22;6.30;99.90
55560;DHT22;41414;53.250;6.514;2022-11-28T04:16:56;6.40;99.90
55560;DHT22;41414;53.250;6.514;2022-11-28T04:19:33;6.30;99.90
55560;DHT22;41414;53.250;6.514;2022-11-28T04:22:18;6.40;99.90
55560;DHT22;41414;53.250;6.514;2022-11-28T04:24:50;6.40;99.90
55560;DHT22;41414;53.250;6.514;2022-11-28T04:27:21;6.40;99.90
55560;DHT22;41414;53.250;6.514;2022-11-28T04:29:53;6.40;99.90
55560;DHT22;41414;53.250;6.514;2022-11-28T04:32:21;6.40;99.90
55560;DHT22;41414;53.250;6.514;2022-11-28T04:34:53;6.50;99.90
55560;DHT22;41414;53.250;6.514;2022-11-28T04:37:22;6.50;99.90
55560;DHT22;41414;53.250;6.514;2022-11-28T04:39:49;6.50;99.90
55560;DHT22;41414;53.250;6.514;2022-11-28T04:42:22;6.50;99.90
55560;DHT22;41414;53.250;6.514;2022-11-28T04:47:20;6.60;99.90
55560;DHT22;41414;53.250;6.514;2022-11-28T04:49:47;6.60;99.90
55560;DHT22;41414;53.250;6.514;2022-11-28T04:52:22;6.60;99.90
55560;DHT22;41414;53.250;6.514;2022-11-28T04:55:02;6.70;99.90
55560;DHT22;41414;53.250;6.514;2022-11-28T04:57:40;6.70;99.90
55560;DHT22;41414;53.250;6.514;2022-11-28T05:00:10;6.70;99.90
55560;DHT22;41414;53.250;6.514;2022-11-28T05:02:38;6.70;99.90
55560;DHT22;41414;53.250;6.514;2022-11-28T05:05:14;6.80;99.90
55560;DHT22;41414;53.250;6.514;2022-11-28T05:07:40;6.80;99.90
55560;DHT22;41414;53.250;6.514;2022-11-28T05:10:07;6.80;99.90
55560;DHT22;41414;53.250;6.514;2022-11-28T05:12:33;6.80;99.90
55560;DHT22;41414;53.250;6.514;2022-11-28T05:14:59;6.90;99.90
55560;DHT22;41414;53.250;6.514;2022-11-28T05:17:25;6.90;99.90
55560;DHT22;41414;53.250;6.514;2022-11-28T05:19:50;6.80;99.90
55560;DHT22;41414;53.250;6.514;2022-11-28T05:22:16;6.90;99.90
55560;DHT22;41414;53.250;6.514;2022-11-28T05:24:42;6.90;99.90
55560;DHT22;41414;53.250;6.514;2022-11-28T05:27:08;6.90;99.90
55560;DHT22;41414;53.250;6.514;2022-11-28T05:29:36;7.00;99.90
55560;DHT22;41414;53.250;6.514;2022-11-28T05:32:03;7.00;99.90
55560;DHT22;41414;53.250;6.514;2022-11-28T05:34:29;7.00;99.90
55560;DHT22;41414;53.250;6.514;2022-11-28T05:36:56;7.00;99.90
55560;DHT22;41414;53.250;6.514;2022-11-28T05:39:22;7.00;99.90
55560;DHT22;41414;53.250;6.514;2022-11-28T05:41:48;7.00;99.90
55560;DHT22;41414;53.250;6.514;2022-11-28T05:44:14;7.10;99.90
55560;DHT22;41414;53.250;6.514;2022-11-28T05:46:40;7.10;99.90
55560;DHT22;41414;53.250;6.514;2022-11-28T05:49:05;7.10;99.90
55560;DHT22;41414;53.250;6.514;2022-11-28T05:51:31;7.10;99.90
55560;DHT22;41414;53.250;6.514;2022-11-28T05:53:57;7.10;99.90
55560;DHT22;41414;53.250;6.514;2022-11-28T05:56:23;7.10;99.90
55560;DHT22;41414;53.250;6.514;2022-11-28T05:58:49;7.10;99.90
55560;DHT22;41414;53.250;6.514;2022-11-28T06:01:19;7.10;99.90
55560;DHT22;41414;53.250;6.514;2022-11-28T06:03:45;7.10;99.90
55560;DHT22;41414;53.250;6.514;2022-11-28T06:06:15;7.10;99.90
55560;DHT22;41414;53.250;6.514;2022-11-28T06:08:43;7.20;99.90
55560;DHT22;41414;53.250;6.514;2022-11-28T06:11:11;7.20;99.90
55560;DHT22;41414;53.250;6.514;2022-11-28T06:13:39;7.20;99.90
55560;DHT22;41414;53.250;6.514;2022-11-28T06:16:08;7.20;99.90
55560;DHT22;41414;53.250;6.514;2022-11-28T06:18:35;7.20;99.90
55560;DHT22;41414;53.250;6.514;2022-11-28T06:21:02;7.20;99.90
55560;DHT22;41414;53.250;6.514;2022-11-28T06:23:28;7.20;99.90
55560;DHT22;41414;53.250;6.514;2022-11-28T06:25:53;7.30;99.90
55560;DHT22;41414;53.250;6.514;2022-11-28T06:28:19;7.30;99.90
55560;DHT22;41414;53.250;6.514;2022-11-28T06:30:45;7.30;99.90
55560;DHT22;41414;53.250;6.514;2022-11-28T06:33:11;7.30;99.90
55560;DHT22;41414;53.250;6.514;2022-11-28T06:35:37;7.30;99.90
55560;DHT22;41414;53.250;6.514;2022-11-28T06:38:02;7.30;99.90
55560;DHT22;41414;53.250;6.514;2022-11-28T06:40:28;7.30;99.90
55560;DHT22;41414;53.250;6.514;2022-11-28T06:42:54;7.30;99.90
55560;DHT22;41414;53.250;6.514;2022-11-28T06:45:20;7.30;99.90
55560;DHT22;41414;53.250;6.514;2022-11-28T06:47:46;7.30;99.90
55560;DHT22;41414;53.250;6.514;2022-11-28T06:50:12;7.30;99.90
55560;DHT22;41414;53.250;6.514;2022-11-28T06:52:38;7.40;99.90
55560;DHT22;41414;53.250;6.514;2022-11-28T06:55:04;7.30;99.90
55560;DHT22;41414;53.250;6.514;2022-11-28T06:57:30;7.40;99.90
55560;DHT22;41414;53.250;6.514;2022-11-28T06:59:57;7.40;99.90
55560;DHT22;41414;53.250;6.514;2022-11-28T07:02:23;7.40;99.90
55560;DHT22;41414;53.250;6.514;2022-11-28T07:04:51;7.40;99.90
55560;DHT22;41414;53.250;6.514;2022-11-28T07:07:17;7.40;99.90
55560;DHT22;41414;53.250;6.514;2022-11-28T07:09:43;7.40;99.90
55560;DHT22;41414;53.250;6.514;2022-11-28T07:12:09;7.40;99.90
55560;DHT22;41414;53.250;6.514;2022-11-28T07:14:35;7.40;99.90
55560;DHT22;41414;53.250;6.514;2022-11-28T07:17:01;7.40;99.90
55560;DHT22;41414;53.250;6.514;2022-11-28T07:19:27;7.50;99.90
55560;DHT22;41414;53.250;6.514;2022-11-28T07:21:52;7.40;99.90
55560;DHT22;41414;53.250;6.514;2022-11-28T07:24:18;7.40;99.90
55560;DHT22;41414;53.250;6.514;2022-11-28T07:26:45;7.40;99.90
55560;DHT22;41414;53.250;6.514;2022-11-28T07:29:17;7.50;99.90
55560;DHT22;41414;53.250;6.514;2022-11-28T07:31:44;7.50;99.90
55560;DHT22;41414;53.250;6.514;2022-11-28T07:34:10;7.50;99.90
55560;DHT22;41414;53.250;6.514;2022-11-28T07:36:36;7.50;99.90
55560;DHT22;41414;53.250;6.514;2022-11-28T07:39:05;7.50;99.90
55560;DHT22;41414;53.250;6.514;2022-11-28T07:41:32;7.50;99.90
55560;DHT22;41414;53.250;6.514;2022-11-28T07:44:01;7.50;99.90
55560;DHT22;41414;53.250;6.514;2022-11-28T07:46:29;7.50;99.90
55560;DHT22;41414;53.250;6.514;2022-11-28T07:48:56;7.50;99.90
55560;DHT22;41414;53.250;6.514;2022-11-28T07:51:24;7.50;99.90
55560;DHT22;41414;53.250;6.514;2022-11-28T07:53:50;7.50;99.90
55560;DHT22;41414;53.250;6.514;2022-11-28T07:56:19;7.50;99.90
55560;DHT22;41414;53.250;6.514;2022-11-28T07:58:46;7.50;99.90
55560;DHT22;41414;53.250;6.514;2022-11-28T08:01:16;7.50;99.90
55560;DHT22;41414;53.250;6.514;2022-11-28T08:03:42;7.50;99.90
55560;DHT22;41414;53.250;6.514;2022-11-28T08:06:10;7.50;99.90
55560;DHT22;41414;53.250;6.514;2022-11-28T08:08:36;7.50;99.90
55560;DHT22;41414;53.250;6.514;2022-11-28T08:11:05;7.50;99.90
55560;DHT22;41414;53.250;6.514;2022-11-28T08:13:31;7.50;99.90
55560;DHT22;41414;53.250;6.514;2022-11-28T08:15:57;7.50;99.90
55560;DHT22;41414;53.250;6.514;2022-11-28T08:18:23;7.50;99.90
55560;DHT22;41414;53.250;6.514;2022-11-28T08:20:49;7.50;99.90
55560;DHT22;41414;53.250;6.514;2022-11-28T08:23:15;7.50;99.90
55560;DHT22;41414;53.250;6.514;2022-11-28T08:25:41;7.50;99.90
55560;DHT22;41414;53.250;6.514;2022-11-28T08:28:06;7.50;99.90
55560;DHT22;41414;53.250;6.514;2022-11-28T08:30:32;7.60;99.90
55560;DHT22;41414;53.250;6.514;2022-11-28T08:32:58;7.60;99.90
55560;DHT22;41414;53.250;6.514;2022-11-28T08:35:24;7.60;99.90
55560;DHT22;41414;53.250;6.514;2022-11-28T08:37:50;7.60;99.90
55560;DHT22;41414;53.250;6.514;2022-11-28T08:40:15;7.60;99.90
55560;DHT22;41414;53.250;6.514;2022-11-28T08:42:41;7.60;99.90
55560;DHT22;41414;53.250;6.514;2022-11-28T08:45:09;7.60;99.90
55560;DHT22;41414;53.250;6.514;2022-11-28T08:47:35;7.60;99.90
55560;DHT22;41414;53.250;6.514;2022-11-28T08:50:01;7.60;99.90
55560;DHT22;41414;53.250;6.514;2022-11-28T08:52:27;7.60;99.90
55560;DHT22;41414;53.250;6.514;2022-11-28T08:54:53;7.60;99.90
55560;DHT22;41414;53.250;6.514;2022-11-28T08:57:19;7.60;99.90
55560;DHT22;41414;53.250;6.514;2022-11-28T08:59:45;7.60;99.90
55560;DHT22;41414;53.250;6.514;2022-11-28T09:02:11;7.60;99.90
55560;DHT22;41414;53.250;6.514;2022-11-28T09:04:38;7.60;99.90
55560;DHT22;41414;53.250;6.514;2022-11-28T09:07:03;7.70;99.90
55560;DHT22;41414;53.250;6.514;2022-11-28T09:09:29;7.70;99.90
55560;DHT22;41414;53.250;6.514;2022-11-28T09:11:55;7.70;99.90
55560;DHT22;41414;53.250;6.514;2022-11-28T09:14:21;7.70;99.90
55560;DHT22;41414;53.250;6.514;2022-11-28T09:16:47;7.70;99.90
55560;DHT22;41414;53.250;6.514;2022-11-28T09:19:12;7.70;99.90
55560;DHT22;41414;53.250;6.514;2022-11-28T09:21:38;7.70;99.90
55560;DHT22;41414;53.250;6.514;2022-11-28T09:24:06;7.70;99.90
55560;DHT22;41414;53.250;6.514;2022-11-28T09:26:32;7.70;99.90
55560;DHT22;41414;53.250;6.514;2022-11-28T09:28:58;7.70;99.90
55560;DHT22;41414;53.250;6.514;2022-11-28T09:31:25;7.70;99.90
55560;DHT22;41414;53.250;6.514;2022-11-28T09:33:50;7.70;99.90
55560;DHT22;41414;53.250;6.514;2022-11-28T09:36:19;7.70;99.90
55560;DHT22;41414;53.250;6.514;2022-11-28T09:38:45;7.80;99.90
55560;DHT22;41414;53.250;6.514;2022-11-28T09:41:51;7.80;99.90
55560;DHT22;41414;53.250;6.514;2022-11-28T09:44:25;7.80;99.90
55560;DHT22;41414;53.250;6.514;2022-11-28T09:46:58;7.80;99.90
55560;DHT22;41414;53.250;6.514;2022-11-28T09:49:38;7.80;99.90
55560;DHT22;41414;53.250;6.514;2022-11-28T09:52:23;7.80;99.90
55560;DHT22;41414;53.250;6.514;2022-11-28T09:57:35;7.90;99.90
55560;DHT22;41414;53.250;6.514;2022-11-28T10:00:04;7.90;99.90
55560;DHT22;41414;53.250;6.514;2022-11-28T10:02:42;7.90;99.90
55560;DHT22;41414;53.250;6.514;2022-11-28T10:05:26;7.90;99.90
55560;DHT22;41414;53.250;6.514;2022-11-28T10:07:59;8.00;99.90
55560;DHT22;41414;53.250;6.514;2022-11-28T10:10:40;7.90;99.90
55560;DHT22;41414;53.250;6.514;2022-11-28T10:13:20;7.90;99.90
55560;DHT22;41414;53.250;6.514;2022-11-28T10:15:57;8.00;99.90
55560;DHT22;41414;53.250;6.514;2022-11-28T10:18:46;8.00;99.90
55560;DHT22;41414;53.250;6.514;2022-11-28T10:21:32;8.00;99.90
55560;DHT22;41414;53.250;6.514;2022-11-28T10:24:06;8.00;99.90
55560;DHT22;41414;53.250;6.514;2022-11-28T10:26:37;7.90;99.90
55560;DHT22;41414;53.250;6.514;2022-11-28T10:29:29;7.90;99.90
55560;DHT22;41414;53.250;6.514;2022-11-28T10:32:00;8.00;99.90
55560;DHT22;41414;53.250;6.514;2022-11-28T10:34:31;8.00;99.90
55560;DHT22;41414;53.250;6.514;2022-11-28T10:37:19;8.00;99.90
55560;DHT22;41414;53.250;6.514;2022-11-28T10:39:46;8.00;99.90
55560;DHT22;41414;53.250;6.514;2022-11-28T10:42:31;8.00;99.90
55560;DHT22;41414;53.250;6.514;2022-11-28T10:50:23;8.10;99.90
55560;DHT22;41414;53.250;6.514;2022-11-28T10:53:00;8.10;99.90
55560;DHT22;41414;53.250;6.514;2022-11-28T10:58:31;8.10;99.90
55560;DHT22;41414;53.250;6.514;2022-11-28T11:01:02;8.10;99.90
55560;DHT22;41414;53.250;6.514;2022-11-28T11:03:31;8.10;99.90
55560;DHT22;41414;53.250;6.514;2022-11-28T11:05:58;8.10;99.90
55560;DHT22;41414;53.250;6.514;2022-11-28T11:08:26;8.20;99.90
55560;DHT22;41414;53.250;6.514;2022-11-28T11:13:30;8.30;99.90
55560;DHT22;41414;53.250;6.514;2022-11-28T11:16:09;8.40;99.90
55560;DHT22;41414;53.250;6.514;2022-11-28T11:21:16;8.40;99.90
55560;DHT22;41414;53.250;6.514;2022-11-28T11:23:43;8.40;99.90
55560;DHT22;41414;53.250;6.514;2022-11-28T11:26:33;8.40;99.90
55560;DHT22;41414;53.250;6.514;2022-11-28T11:29:02;8.50;99.90
55560;DHT22;41414;53.250;6.514;2022-11-28T11:31:32;8.50;99.90
55560;DHT22;41414;53.250;6.514;2022-11-28T11:34:04;8.50;99.90
55560;DHT22;41414;53.250;6.514;2022-11-28T11:36:33;8.50;99.90
55560;DHT22;41414;53.250;6.514;2022-11-28T11:41:32;8.60;99.90
55560;DHT22;41414;53.250;6.514;2022-11-28T11:44:26;8.60;99.90
55560;DHT22;41414;53.250;6.514;2022-11-28T11:47:05;8.60;99.90
55560;DHT22;41414;53.250;6.514;2022-11-28T11:49:39;8.60;99.90
55560;DHT22;41414;53.250;6.514;2022-11-28T11:54:51;8.70;99.90
55560;DHT22;41414;53.250;6.514;2022-11-28T11:57:20;8.60;99.90
55560;DHT22;41414;53.250;6.514;2022-11-28T11:59:52;8.70;99.90
55560;DHT22;41414;53.250;6.514;2022-11-28T12:02:22;8.70;99.90
55560;DHT22;41414;53.250;6.514;2022-11-28T12:04:58;8.70;99.90
55560;DHT22;41414;53.250;6.514;2022-11-28T12:10:22;8.70;99.90
55560;DHT22;41414;53.250;6.514;2022-11-28T12:12:50;8.80;99.90
55560;DHT22;41414;53.250;6.514;2022-11-28T12:15:23;8.80;99.90
55560;DHT22;41414;53.250;6.514;2022-11-28T12:18:15;8.80;99.90
55560;DHT22;41414;53.250;6.514;2022-11-28T12:21:00;8.80;99.90
55560;DHT22;41414;53.250;6.514;2022-11-28T12:23:32;8.80;99.90
55560;DHT22;41414;53.250;6.514;2022-11-28T12:26:12;8.80;99.90
55560;DHT22;41414;53.250;6.514;2022-11-28T12:28:52;8.80;99.90
55560;DHT22;41414;53.250;6.514;2022-11-28T12:34:42;8.80;99.90
55560;DHT22;41414;53.250;6.514;2022-11-28T12:40:34;8.90;99.90
55560;DHT22;41414;53.250;6.514;2022-11-28T12:46:12;9.00;99.90
55560;DHT22;41414;53.250;6.514;2022-11-28T12:48:58;8.90;99.90
55560;DHT22;41414;53.250;6.514;2022-11-28T12:51:37;8.90;99.90
55560;DHT22;41414;53.250;6.514;2022-11-28T12:56:53;8.90;99.90
55560;DHT22;41414;53.250;6.514;2022-11-28T13:02:41;8.90;99.90
55560;DHT22;41414;53.250;6.514;2022-11-28T13:05:13;8.90;99.90
55560;DHT22;41414;53.250;6.514;2022-11-28T13:07:58;8.90;99.90
55560;DHT22;41414;53.250;6.514;2022-11-28T13:10:44;8.90;99.90
55560;DHT22;41414;53.250;6.514;2022-11-28T13:13:26;8.90;99.90
55560;DHT22;41414;53.250;6.514;2022-11-28T13:16:14;8.90;99.90
55560;DHT22;41414;53.250;6.514;2022-11-28T13:18:47;8.90;99.90
55560;DHT22;41414;53.250;6.514;2022-11-28T13:23:59;8.90;99.90
55560;DHT22;41414;53.250;6.514;2022-11-28T13:26:38;8.90;99.90
55560;DHT22;41414;53.250;6.514;2022-11-28T13:29:19;8.90;99.90
55560;DHT22;41414;53.250;6.514;2022-11-28T13:32:00;8.90;99.90
55560;DHT22;41414;53.250;6.514;2022-11-28T13:34:27;8.90;99.90
55560;DHT22;41414;53.250;6.514;2022-11-28T13:37:09;8.90;99.90
55560;DHT22;41414;53.250;6.514;2022-11-28T13:39:50;8.90;99.90
55560;DHT22;41414;53.250;6.514;2022-11-28T13:42:43;8.90;99.90
55560;DHT22;41414;53.250;6.514;2022-11-28T13:45:29;8.90;99.90
55560;DHT22;41414;53.250;6.514;2022-11-28T13:47:55;8.90;99.90
55560;DHT22;41414;53.250;6.514;2022-11-28T13:55:40;8.80;99.90
55560;DHT22;41414;53.250;6.514;2022-11-28T13:58:16;8.90;99.90
55560;DHT22;41414;53.250;6.514;2022-11-28T14:03:24;8.80;99.90
55560;DHT22;41414;53.250;6.514;2022-11-28T14:05:56;8.90;99.90
55560;DHT22;41414;53.250;6.514;2022-11-28T14:16:49;8.80;99.90
55560;DHT22;41414;53.250;6.514;2022-11-28T14:19:41;8.80;99.90
55560;DHT22;41414;53.250;6.514;2022-11-28T14:25:23;8.80;99.90
55560;DHT22;41414;53.250;6.514;2022-11-28T14:27:54;8.80;99.90
55560;DHT22;41414;53.250;6.514;2022-11-28T14:30:26;8.80;99.90
55560;DHT22;41414;53.250;6.514;2022-11-28T14:32:56;8.80;99.90
55560;DHT22;41414;53.250;6.514;2022-11-28T14:36:02;8.80;99.90
55560;DHT22;41414;53.250;6.514;2022-11-28T14:45:48;8.70;99.90
55560;DHT22;41414;53.250;6.514;2022-11-28T14:50:48;8.70;99.90
55560;DHT22;41414;53.250;6.514;2022-11-28T14:53:36;8.70;99.90
55560;DHT22;41414;53.250;6.514;2022-11-28T14:58:46;8.70;99.90
55560;DHT22;41414;53.250;6.514;2022-11-28T15:01:19;8.70;99.90
55560;DHT22;41414;53.250;6.514;2022-11-28T15:03:58;8.70;99.90
55560;DHT22;41414;53.250;6.514;2022-11-28T15:06:31;8.70;99.90
55560;DHT22;41414;53.250;6.514;2022-11-28T15:12:02;8.70;99.90
55560;DHT22;41414;53.250;6.514;2022-11-28T15:14:33;8.70;99.90
55560;DHT22;41414;53.250;6.514;2022-11-28T15:17:02;8.70;99.90
55560;DHT22;41414;53.250;6.514;2022-11-28T15:21:58;8.70;99.90
55560;DHT22;41414;53.250;6.514;2022-11-28T15:24:35;8.60;99.90
55560;DHT22;41414;53.250;6.514;2022-11-28T15:29:34;8.60;99.90
55560;DHT22;41414;53.250;6.514;2022-11-28T15:32:01;8.70;99.90
55560;DHT22;41414;53.250;6.514;2022-11-28T15:34:31;8.60;99.90
55560;DHT22;41414;53.250;6.514;2022-11-28T15:36:59;8.60;99.90
55560;DHT22;41414;53.250;6.514;2022-11-28T15:42:02;8.60;99.90
55560;DHT22;41414;53.250;6.514;2022-11-28T15:44:29;8.60;99.90
55560;DHT22;41414;53.250;6.514;2022-11-28T15:46:56;8.60;99.90
55560;DHT22;41414;53.250;6.514;2022-11-28T15:49:25;8.60;99.90
55560;DHT22;41414;53.250;6.514;2022-11-28T15:51:53;8.60;99.90
55560;DHT22;41414;53.250;6.514;2022-11-28T15:54:34;8.60;99.90
55560;DHT22;41414;53.250;6.514;2022-11-28T15:57:00;8.60;99.90
55560;DHT22;41414;53.250;6.514;2022-11-28T15:59:27;8.60;99.90
55560;DHT22;41414;53.250;6.514;2022-11-28T16:01:57;8.60;99.90
55560;DHT22;41414;53.250;6.514;2022-11-28T16:04:24;8.60;99.90
55560;DHT22;41414;53.250;6.514;2022-11-28T16:06:52;8.50;99.90
55560;DHT22;41414;53.250;6.514;2022-11-28T16:09:26;8.50;99.90
55560;DHT22;41414;53.250;6.514;2022-11-28T16:11:53;8.50;99.90
55560;DHT22;41414;53.250;6.514;2022-11-28T16:14:30;8.60;99.90
55560;DHT22;41414;53.250;6.514;2022-11-28T16:16:57;8.60;99.90
55560;DHT22;41414;53.250;6.514;2022-11-28T16:19:26;8.50;99.90
55560;DHT22;41414;53.250;6.514;2022-11-28T16:21:56;8.50;99.90
55560;DHT22;41414;53.250;6.514;2022-11-28T16:24:27;8.60;99.90
55560;DHT22;41414;53.250;6.514;2022-11-28T16:26:58;8.60;99.90
55560;DHT22;41414;53.250;6.514;2022-11-28T16:29:28;8.50;99.90
55560;DHT22;41414;53.250;6.514;2022-11-28T16:32:08;8.60;99.90
55560;DHT22;41414;53.250;6.514;2022-11-28T16:34:46;8.50;99.90
55560;DHT22;41414;53.250;6.514;2022-11-28T16:37:15;8.50;99.90
55560;DHT22;41414;53.250;6.514;2022-11-28T16:39:43;8.60;99.90
55560;DHT22;41414;53.250;6.514;2022-11-28T16:42:16;8.50;99.90
55560;DHT22;41414;53.250;6.514;2022-11-28T16:44:44;8.50;99.90
55560;DHT22;41414;53.250;6.514;2022-11-28T16:47:24;8.50;99.90
55560;DHT22;41414;53.250;6.514;2022-11-28T16:52:42;8.50;99.90
55560;DHT22;41414;53.250;6.514;2022-11-28T17:00:38;8.50;99.90
55560;DHT22;41414;53.250;6.514;2022-11-28T17:03:05;8.50;99.90
55560;DHT22;41414;53.250;6.514;2022-11-28T17:05:31;8.50;99.90
55560;DHT22;41414;53.250;6.514;2022-11-28T17:07:57;8.50;99.90
55560;DHT22;41414;53.250;6.514;2022-11-28T17:10:24;8.50;99.90
55560;DHT22;41414;53.250;6.514;2022-11-28T17:12:50;8.50;99.90
55560;DHT22;41414;53.250;6.514;2022-11-28T17:15:19;8.50;99.90
55560;DHT22;41414;53.250;6.514;2022-11-28T17:17:46;8.50;99.90
55560;DHT22;41414;53.250;6.514;2022-11-28T17:20:13;8.50;99.90
55560;DHT22;41414;53.250;6.514;2022-11-28T17:22:42;8.50;99.90
55560;DHT22;41414;53.250;6.514;2022-11-28T17:25:14;8.50;99.90
55560;DHT22;41414;53.250;6.514;2022-11-28T17:27:41;8.50;99.90
55560;DHT22;41414;53.250;6.514;2022-11-28T17:30:11;8.50;99.90
55560;DHT22;41414;53.250;6.514;2022-11-28T17:32:37;8.60;99.90
55560;DHT22;41414;53.250;6.514;2022-11-28T17:35:10;8.50;99.90
55560;DHT22;41414;53.250;6.514;2022-11-28T17:37:38;8.50;99.90
55560;DHT22;41414;53.250;6.514;2022-11-28T17:40:04;8.50;99.90
55560;DHT22;41414;53.250;6.514;2022-11-28T17:43:02;8.50;99.90
55560;DHT22;41414;53.250;6.514;2022-11-28T17:45:30;8.50;99.90
55560;DHT22;41414;53.250;6.514;2022-11-28T17:47:56;8.50;99.90
55560;DHT22;41414;53.250;6.514;2022-11-28T17:50:22;8.50;99.90
55560;DHT22;41414;53.250;6.514;2022-11-28T17:52:48;8.50;99.90
55560;DHT22;41414;53.250;6.514;2022-11-28T17:55:14;8.50;99.90
55560;DHT22;41414;53.250;6.514;2022-11-28T17:57:40;8.50;99.90
55560;DHT22;41414;53.250;6.514;2022-11-28T18:00:07;8.50;99.90
55560;DHT22;41414;53.250;6.514;2022-11-28T18:02:33;8.50;99.90
55560;DHT22;41414;53.250;6.514;2022-11-28T18:04:59;8.50;99.90
55560;DHT22;41414;53.250;6.514;2022-11-28T18:07:25;8.50;99.90
55560;DHT22;41414;53.250;6.514;2022-11-28T18:09:51;8.50;99.90